Time;durP1;ratioP1;P1;durP2;ratioP2;P2;SDS_P1;SDS_P2;PMS_P1;PMS_P2;Temp;Humidity;BMP_temperature;BMP_pressure;BME280_temperature;BME280_humidity;BME280_pressure;Samples;Min_cycle;Max_cycle;Signal;HPM_P1;HPM_P2
2024/01/10 00:02:21;;;;;;;1.55;1.35;;;;;;;;;;5012726;28;92342;-76
2024/01/10 00:04:48;;;;;;;2.67;1.38;;;;;;;;;;4994932;28;95229;-75
2024/01/10 00:07:14;;;;;;;2.33;1.38;;;;;;;;;;5013554;28;92285;-76
2024/01/10 00:09:41;;;;;;;2.05;1.20;;;;;;;;;;5014240;28;92009;-75
2024/01/10 00:12:07;;;;;;;1.67;1.42;;;;;;;;;;5014313;28;92575;-76
2024/01/10 00:14:34;;;;;;;2.13;1.48;;;;;;;;;;5010485;28;94809;-76
2024/01/10 00:17:00;;;;;;;1.67;1.55;;;;;;;;;;4998113;28;95065;-76
2024/01/10 00:19:27;;;;;;;2.00;1.63;;;;;;;;;;4996973;28;92285;-76
2024/01/10 00:21:53;;;;;;;1.50;1.40;;;;;;;;;;5007027;28;93953;-76
2024/01/10 00:24:20;;;;;;;1.30;1.20;;;;;;;;;;5014727;28;91982;-76
2024/01/10 00:26:46;;;;;;;1.70;1.60;;;;;;;;;;5014497;28;93063;-76
2024/01/10 00:29:12;;;;;;;1.50;1.40;;;;;;;;;;4998741;28;92444;-76
2024/01/10 00:31:39;;;;;;;1.75;1.48;;;;;;;;;;4998740;28;92651;-76
2024/01/10 00:34:06;;;;;;;1.25;1.15;;;;;;;;;;5000194;28;92352;-76
2024/01/10 00:36:33;;;;;;;1.60;1.50;;;;;;;;;;5001248;28;92340;-76
2024/01/10 00:38:59;;;;;;;3.10;1.65;;;;;;;;;;4994423;28;95525;-76
2024/01/10 00:41:25;;;;;;;1.60;1.17;;;;;;;;;;4995973;28;92791;-76
2024/01/10 00:43:52;;;;;;;1.30;1.25;;;;;;;;;;4996936;28;92499;-76
2024/01/10 00:46:18;;;;;;;1.50;1.40;;;;;;;;;;4994160;28;94950;-76
2024/01/10 00:48:46;;;;;;;4.18;1.65;;;;;;;;;;4978397;28;93171;-75
2024/01/10 00:51:12;;;;;;;2.92;1.55;;;;;;;;;;4977675;28;94014;-76
2024/01/10 00:53:39;;;;;;;1.77;1.40;;;;;;;;;;4993880;28;94118;-75
2024/01/10 00:56:06;;;;;;;1.50;1.10;;;;;;;;;;4995228;28;92307;-76
2024/01/10 00:58:32;;;;;;;1.63;1.52;;;;;;;;;;5000880;28;92291;-76
2024/01/10 01:00:59;;;;;;;2.80;2.00;;;;;;;;;;4997423;28;93062;-75
2024/01/10 01:03:26;;;;;;;1.40;1.30;;;;;;;;;;4995947;28;94861;-75
2024/01/10 01:05:52;;;;;;;1.60;1.50;;;;;;;;;;4997633;28;92725;-75
2024/01/10 01:08:19;;;;;;;2.67;1.73;;;;;;;;;;4995739;28;94019;-76
2024/01/10 01:10:45;;;;;;;1.35;1.25;;;;;;;;;;4997614;28;94136;-76
2024/01/10 01:13:12;;;;;;;1.90;1.80;;;;;;;;;;4997503;28;95277;-75
2024/01/10 01:15:38;;;;;;;1.42;1.33;;;;;;;;;;4995672;28;92356;-75
2024/01/10 01:18:05;;;;;;;1.38;1.30;;;;;;;;;;4998894;28;92385;-76
2024/01/10 01:20:32;;;;;;;3.72;1.70;;;;;;;;;;4993154;28;94683;-75
2024/01/10 01:22:59;;;;;;;1.70;1.60;;;;;;;;;;5002410;28;94337;-76
2024/01/10 01:25:25;;;;;;;1.88;1.67;;;;;;;;;;4997386;28;92547;-76
2024/01/10 01:27:52;;;;;;;1.98;1.30;;;;;;;;;;5000062;28;94819;-76
2024/01/10 01:30:19;;;;;;;1.85;1.60;;;;;;;;;;5005989;28;94027;-76
2024/01/10 01:32:45;;;;;;;3.85;1.52;;;;;;;;;;5010750;28;95042;-76
2024/01/10 01:35:12;;;;;;;1.83;1.73;;;;;;;;;;5003332;28;93405;-76
2024/01/10 01:37:38;;;;;;;1.85;1.60;;;;;;;;;;5015209;28;92746;-76
2024/01/10 01:40:05;;;;;;;1.77;1.67;;;;;;;;;;5018376;28;93023;-75
2024/01/10 01:42:32;;;;;;;1.55;1.45;;;;;;;;;;5015254;28;92605;-76
2024/01/10 01:44:58;;;;;;;1.85;1.65;;;;;;;;;;5014007;28;92054;-75
2024/01/10 01:47:27;;;;;;;1.65;1.50;;;;;;;;;;5013603;28;95428;-75
2024/01/10 01:49:53;;;;;;;1.90;1.70;;;;;;;;;;5015104;28;92879;-76
2024/01/10 01:52:20;;;;;;;1.58;1.33;;;;;;;;;;5012260;28;95800;-76
2024/01/10 01:54:47;;;;;;;2.08;1.77;;;;;;;;;;5014152;28;92406;-75
2024/01/10 01:57:14;;;;;;;2.90;1.60;;;;;;;;;;5006594;28;91993;-76
2024/01/10 01:59:40;;;;;;;1.52;1.42;;;;;;;;;;4994824;28;93286;-75
2024/01/10 02:02:07;;;;;;;1.63;1.52;;;;;;;;;;4997085;28;92613;-76
2024/01/10 02:04:33;;;;;;;1.60;1.25;;;;;;;;;;4994782;28;92066;-76
2024/01/10 02:07:01;;;;;;;2.58;1.88;;;;;;;;;;4993508;28;93032;-75
2024/01/10 02:09:27;;;;;;;2.38;1.70;;;;;;;;;;4993989;28;92088;-75
2024/01/10 02:11:55;;;;;;;1.60;1.35;;;;;;;;;;4994591;28;92389;-76
2024/01/10 02:14:21;;;;;;;2.20;1.83;;;;;;;;;;4994473;28;92891;-75
2024/01/10 02:16:48;;;;;;;4.07;1.50;;;;;;;;;;4991681;28;94805;-75
2024/01/10 02:19:21;;;;;;;1.75;1.38;;;;;;;;;;4994796;28;93272;-75
2024/01/10 02:21:47;;;;;;;1.15;1.15;;;;;;;;;;4993009;28;94660;-75
2024/01/10 02:24:14;;;;;;;1.70;1.60;;;;;;;;;;4997942;28;92459;-75
2024/01/10 02:26:40;;;;;;;2.13;1.67;;;;;;;;;;4994259;28;92254;-75
2024/01/10 02:29:07;;;;;;;2.78;2.03;;;;;;;;;;4995706;28;92191;-75
2024/01/10 02:31:33;;;;;;;1.77;1.55;;;;;;;;;;5014208;28;92269;-75
2024/01/10 02:34:00;;;;;;;1.80;1.70;;;;;;;;;;5001573;28;92978;-75
2024/01/10 02:36:27;;;;;;;1.70;1.60;;;;;;;;;;5012751;28;92580;-75
2024/01/10 02:38:53;;;;;;;2.13;1.63;;;;;;;;;;5002607;28;92338;-75
2024/01/10 02:41:20;;;;;;;6.05;1.40;;;;;;;;;;4990988;28;94917;-75
2024/01/10 02:43:47;;;;;;;1.48;1.38;;;;;;;;;;4994452;28;93879;-75
2024/01/10 02:46:13;;;;;;;1.60;1.40;;;;;;;;;;4995614;28;94199;-75
2024/01/10 02:48:40;;;;;;;2.95;1.70;;;;;;;;;;5002147;28;92805;-75
2024/01/10 02:51:06;;;;;;;5.80;1.80;;;;;;;;;;5012283;28;95403;-75
2024/01/10 02:53:33;;;;;;;1.60;1.48;;;;;;;;;;5013690;28;92322;-75
2024/01/10 02:55:59;;;;;;;1.73;1.60;;;;;;;;;;5013943;28;92952;-76
2024/01/10 02:58:26;;;;;;;2.15;1.80;;;;;;;;;;5000218;28;91706;-76
2024/01/10 03:00:53;;;;;;;4.20;1.45;;;;;;;;;;5010557;28;94682;-76
2024/01/10 03:03:19;;;;;;;2.80;1.65;;;;;;;;;;5010303;28;92526;-76
2024/01/10 03:05:46;;;;;;;3.10;2.15;;;;;;;;;;5011066;28;94798;-76
2024/01/10 03:08:12;;;;;;;2.20;1.60;;;;;;;;;;5000402;28;92418;-76
2024/01/10 03:10:39;;;;;;;2.15;1.55;;;;;;;;;;5009686;28;92419;-76
2024/01/10 03:13:05;;;;;;;2.30;1.73;;;;;;;;;;5010883;28;91998;-76
2024/01/10 03:15:32;;;;;;;1.88;1.63;;;;;;;;;;4998820;28;95423;-76
2024/01/10 03:17:58;;;;;;;2.67;1.80;;;;;;;;;;4993922;28;92304;-76
2024/01/10 03:20:25;;;;;;;1.63;1.52;;;;;;;;;;4999915;28;92584;-76
2024/01/10 03:22:52;;;;;;;1.88;1.73;;;;;;;;;;5009323;28;92225;-76
2024/01/10 03:25:18;;;;;;;1.65;1.55;;;;;;;;;;4999640;28;92408;-76
2024/01/10 03:27:45;;;;;;;1.77;1.65;;;;;;;;;;5003043;28;92184;-76
2024/01/10 03:30:11;;;;;;;2.05;1.77;;;;;;;;;;5000530;28;97338;-77
2024/01/10 03:32:38;;;;;;;2.42;2.08;;;;;;;;;;4997362;28;92510;-76
2024/01/10 03:35:05;;;;;;;1.80;1.70;;;;;;;;;;5002343;28;93029;-76
2024/01/10 03:37:31;;;;;;;4.68;1.83;;;;;;;;;;5011421;28;92429;-76
2024/01/10 03:39:59;;;;;;;4.57;1.50;;;;;;;;;;4993628;28;92986;-76
2024/01/10 03:42:26;;;;;;;2.08;1.73;;;;;;;;;;4992388;28;92512;-76
2024/01/10 03:44:52;;;;;;;2.67;2.03;;;;;;;;;;4995038;28;92756;-77
2024/01/10 03:47:19;;;;;;;2.00;1.83;;;;;;;;;;5004538;28;93862;-76
2024/01/10 03:49:46;;;;;;;2.03;1.83;;;;;;;;;;5009950;28;93100;-76
2024/01/10 03:52:12;;;;;;;2.25;2.03;;;;;;;;;;5001690;28;92458;-77
2024/01/10 03:54:40;;;;;;;2.40;1.63;;;;;;;;;;4995221;28;94921;-76
2024/01/10 03:57:07;;;;;;;2.42;1.88;;;;;;;;;;4997526;28;92416;-76
2024/01/10 03:59:33;;;;;;;2.08;1.98;;;;;;;;;;4999361;28;92950;-76
2024/01/10 04:02:00;;;;;;;2.45;1.88;;;;;;;;;;5001987;28;92461;-76
2024/01/10 04:04:27;;;;;;;1.90;1.80;;;;;;;;;;5004854;28;93039;-76
2024/01/10 04:06:53;;;;;;;3.13;1.92;;;;;;;;;;5016391;28;92441;-76
2024/01/10 04:09:20;;;;;;;1.90;1.75;;;;;;;;;;5009416;28;92291;-76
2024/01/10 04:11:46;;;;;;;2.30;2.13;;;;;;;;;;5004003;28;92001;-76
2024/01/10 04:14:13;;;;;;;3.45;1.85;;;;;;;;;;4996857;28;92271;-76
2024/01/10 04:16:39;;;;;;;1.67;1.42;;;;;;;;;;5000532;28;92359;-74
2024/01/10 04:19:06;;;;;;;1.92;1.70;;;;;;;;;;5000952;28;94791;-76
2024/01/10 04:21:33;;;;;;;2.10;1.90;;;;;;;;;;5000133;28;93890;-76
2024/01/10 04:23:59;;;;;;;2.30;2.08;;;;;;;;;;5016687;28;92443;-77
2024/01/10 04:26:26;;;;;;;1.95;1.70;;;;;;;;;;5010421;28;92336;-76
2024/01/10 04:28:52;;;;;;;2.85;2.17;;;;;;;;;;4996674;28;92327;-76
2024/01/10 04:31:19;;;;;;;1.42;1.33;;;;;;;;;;4994591;28;94796;-76
2024/01/10 04:33:45;;;;;;;2.75;2.00;;;;;;;;;;4999448;28;93307;-76
2024/01/10 04:36:12;;;;;;;2.20;1.50;;;;;;;;;;4997442;28;92807;-76
2024/01/10 04:38:38;;;;;;;2.83;1.70;;;;;;;;;;4997574;28;92970;-76
2024/01/10 04:41:05;;;;;;;1.75;1.65;;;;;;;;;;4994521;28;93227;-76
2024/01/10 04:43:31;;;;;;;2.08;1.88;;;;;;;;;;4997015;28;94589;-76
2024/01/10 04:45:58;;;;;;;1.92;1.75;;;;;;;;;;4996330;28;92767;-76
2024/01/10 04:48:24;;;;;;;3.60;1.90;;;;;;;;;;4994611;28;93571;-76
2024/01/10 04:50:51;;;;;;;2.33;2.05;;;;;;;;;;4994729;28;94933;-76
2024/01/10 04:53:18;;;;;;;3.50;1.88;;;;;;;;;;5002630;28;92758;-76
2024/01/10 04:55:45;;;;;;;1.70;1.60;;;;;;;;;;5007743;28;92439;-76
2024/01/10 04:58:16;;;;;;;1.95;1.85;;;;;;;;;;5015029;28;92221;-76
2024/01/10 05:00:43;;;;;;;5.07;2.10;;;;;;;;;;5007404;28;93356;-76
2024/01/10 05:03:10;;;;;;;2.35;1.88;;;;;;;;;;4994458;28;94134;-76
2024/01/10 05:05:36;;;;;;;3.33;1.75;;;;;;;;;;4995910;28;92345;-76
2024/01/10 05:08:03;;;;;;;2.72;2.53;;;;;;;;;;5003846;28;94562;-76
2024/01/10 05:10:30;;;;;;;2.80;1.83;;;;;;;;;;5005250;28;92275;-76
2024/01/10 05:12:56;;;;;;;1.95;1.73;;;;;;;;;;4996474;28;92571;-76
2024/01/10 05:15:23;;;;;;;2.85;1.88;;;;;;;;;;5007145;28;92279;-76
2024/01/10 05:17:49;;;;;;;4.10;2.13;;;;;;;;;;4995527;28;92458;-76
2024/01/10 05:20:16;;;;;;;2.22;1.60;;;;;;;;;;5011966;28;92574;-76
2024/01/10 05:22:43;;;;;;;2.55;1.95;;;;;;;;;;5008030;28;94272;-76
2024/01/10 05:25:10;;;;;;;2.03;1.77;;;;;;;;;;4998781;28;92016;-76
2024/01/10 05:27:37;;;;;;;2.63;2.38;;;;;;;;;;5011215;28;92432;-76
2024/01/10 05:30:03;;;;;;;3.20;1.92;;;;;;;;;;5004360;28;92277;-76
2024/01/10 05:32:30;;;;;;;2.33;1.80;;;;;;;;;;4992521;28;94658;-76
2024/01/10 05:34:56;;;;;;;3.40;2.03;;;;;;;;;;4994463;28;98015;-76
2024/01/10 05:37:23;;;;;;;1.98;1.77;;;;;;;;;;5014509;28;92352;-76
2024/01/10 05:39:49;;;;;;;2.47;2.15;;;;;;;;;;5008234;28;92836;-77
2024/01/10 05:42:16;;;;;;;2.63;1.80;;;;;;;;;;5003670;28;93048;-76
2024/01/10 05:44:43;;;;;;;2.25;1.85;;;;;;;;;;4995358;28;92814;-76
2024/01/10 05:47:09;;;;;;;2.42;2.03;;;;;;;;;;4993546;28;92165;-76
2024/01/10 05:49:35;;;;;;;2.88;2.10;;;;;;;;;;4996027;28;91951;-76
2024/01/10 05:52:02;;;;;;;2.03;1.80;;;;;;;;;;4993497;28;92578;-76
2024/01/10 05:54:29;;;;;;;2.85;2.10;;;;;;;;;;4994810;28;92533;-76
2024/01/10 05:56:55;;;;;;;2.10;2.00;;;;;;;;;;5007412;28;94791;-76
2024/01/10 05:59:22;;;;;;;1.75;1.65;;;;;;;;;;5018207;28;92383;-75
2024/01/10 06:01:51;;;;;;;1.90;1.80;;;;;;;;;;5000282;28;92124;-75
2024/01/10 06:04:17;;;;;;;2.33;1.95;;;;;;;;;;4996563;28;92993;-75
2024/01/10 06:06:45;;;;;;;2.00;1.80;;;;;;;;;;4992499;28;95484;-75
2024/01/10 06:09:11;;;;;;;2.75;2.22;;;;;;;;;;4994602;28;93006;-75
2024/01/10 06:11:41;;;;;;;2.08;1.85;;;;;;;;;;4993586;28;92554;-75
2024/01/10 06:14:08;;;;;;;2.33;1.58;;;;;;;;;;4995371;28;92749;-76
2024/01/10 06:16:35;;;;;;;2.47;2.00;;;;;;;;;;4995178;28;92936;-76
2024/01/10 06:19:01;;;;;;;1.73;1.58;;;;;;;;;;4994742;28;92708;-75
2024/01/10 06:21:28;;;;;;;1.98;1.88;;;;;;;;;;4996126;28;94851;-75
2024/01/10 06:23:54;;;;;;;2.13;1.92;;;;;;;;;;4995536;28;93601;-76
2024/01/10 06:26:22;;;;;;;1.77;1.58;;;;;;;;;;4998690;28;93981;-75
2024/01/10 06:28:48;;;;;;;2.95;2.17;;;;;;;;;;4995216;28;92125;-76
2024/01/10 06:31:15;;;;;;;2.28;2.08;;;;;;;;;;4994582;28;92396;-76
2024/01/10 06:33:42;;;;;;;2.65;1.80;;;;;;;;;;4994278;28;93422;-76
2024/01/10 06:36:09;;;;;;;3.30;2.17;;;;;;;;;;5001678;28;93122;-75
2024/01/10 06:38:35;;;;;;;2.10;1.90;;;;;;;;;;4984282;28;95791;-75
2024/01/10 06:41:06;;;;;;;3.65;2.17;;;;;;;;;;4999992;28;94423;-75
2024/01/10 06:43:34;;;;;;;2.25;2.05;;;;;;;;;;4996189;28;93825;-77
2024/01/10 06:46:01;;;;;;;2.15;1.70;;;;;;;;;;4974754;28;94882;-75
2024/01/10 06:48:27;;;;;;;2.63;2.00;;;;;;;;;;5001958;28;93147;-75
2024/01/10 06:50:53;;;;;;;2.15;1.77;;;;;;;;;;4993109;28;92453;-74
2024/01/10 06:53:20;;;;;;;1.88;1.73;;;;;;;;;;5001181;28;92736;-75
2024/01/10 06:55:46;;;;;;;2.17;1.92;;;;;;;;;;5002633;28;95017;-74
2024/01/10 06:58:13;;;;;;;2.88;2.22;;;;;;;;;;5011907;28;94059;-74
2024/01/10 07:00:39;;;;;;;2.63;1.88;;;;;;;;;;4991868;28;92857;-74
2024/01/10 07:03:06;;;;;;;3.58;2.30;;;;;;;;;;4997165;28;92456;-74
2024/01/10 07:05:33;;;;;;;2.75;2.08;;;;;;;;;;5004895;28;92741;-75
2024/01/10 07:08:02;;;;;;;2.95;1.98;;;;;;;;;;4995234;28;92958;-75
2024/01/10 07:10:29;;;;;;;10.90;2.15;;;;;;;;;;4995442;28;94684;-74
2024/01/10 07:12:56;;;;;;;2.53;1.88;;;;;;;;;;4999675;28;97083;-74
2024/01/10 07:15:22;;;;;;;2.78;2.03;;;;;;;;;;5002545;28;92396;-73
2024/01/10 07:17:49;;;;;;;3.55;2.17;;;;;;;;;;4995318;28;93059;-74
2024/01/10 07:20:15;;;;;;;2.67;1.83;;;;;;;;;;4998425;28;91976;-76
2024/01/10 07:22:43;;;;;;;1.60;1.50;;;;;;;;;;4996121;28;92470;-75
2024/01/10 07:25:14;;;;;;;8.38;2.75;;;;;;;;;;4995120;28;92792;-75
2024/01/10 07:27:41;;;;;;;2.38;1.77;;;;;;;;;;4993983;28;93575;-75
2024/01/10 07:30:13;;;;;;;2.45;2.10;;;;;;;;;;4989050;28;94120;-74
2024/01/10 07:32:41;;;;;;;4.68;1.80;;;;;;;;;;5001660;28;92917;-74
2024/01/10 07:35:09;;;;;;;2.15;1.95;;;;;;;;;;4992636;28;94830;-74
2024/01/10 07:37:36;;;;;;;3.50;2.10;;;;;;;;;;4992953;28;93916;-74
2024/01/10 07:40:05;;;;;;;2.30;2.10;;;;;;;;;;4992640;28;92537;-74
2024/01/10 07:42:32;;;;;;;7.05;2.47;;;;;;;;;;4992766;28;92226;-74
2024/01/10 07:45:00;;;;;;;3.10;2.10;;;;;;;;;;4992555;28;93338;-75
2024/01/10 07:47:26;;;;;;;3.47;2.13;;;;;;;;;;4994293;28;92460;-75
2024/01/10 07:49:53;;;;;;;4.57;2.53;;;;;;;;;;4992457;28;92844;-75
2024/01/10 07:52:19;;;;;;;1.98;1.80;;;;;;;;;;4993271;28;92058;-74
2024/01/10 07:54:50;;;;;;;2.30;1.88;;;;;;;;;;4992250;28;93276;-75
2024/01/10 07:57:18;;;;;;;2.30;2.05;;;;;;;;;;5009099;28;92457;-74
2024/01/10 07:59:45;;;;;;;3.58;2.08;;;;;;;;;;5001384;28;94701;-75
2024/01/10 08:02:11;;;;;;;8.82;2.25;;;;;;;;;;4995397;28;92350;-74
2024/01/10 08:04:38;;;;;;;2.20;2.00;;;;;;;;;;4993459;28;92555;-74
2024/01/10 08:07:04;;;;;;;7.28;1.98;;;;;;;;;;4996049;28;93008;-75
2024/01/10 08:09:31;;;;;;;2.30;2.10;;;;;;;;;;4995738;28;93965;-74
2024/01/10 08:11:58;;;;;;;2.28;1.95;;;;;;;;;;4992844;28;92769;-74
2024/01/10 08:14:24;;;;;;;1.63;1.52;;;;;;;;;;4993343;28;92230;-74
2024/01/10 08:16:54;;;;;;;2.30;2.05;;;;;;;;;;4991877;28;95374;-73
2024/01/10 08:19:21;;;;;;;2.65;2.22;;;;;;;;;;4993232;28;92655;-74
2024/01/10 08:21:47;;;;;;;2.53;2.28;;;;;;;;;;4995552;28;92331;-72
2024/01/10 08:24:14;;;;;;;1.92;1.83;;;;;;;;;;4996965;28;94851;-73
2024/01/10 08:26:40;;;;;;;5.47;1.73;;;;;;;;;;4992936;28;93911;-75
2024/01/10 08:29:07;;;;;;;3.20;2.30;;;;;;;;;;4999013;28;92376;-76
2024/01/10 08:31:33;;;;;;;2.00;1.80;;;;;;;;;;4999071;28;93093;-75
2024/01/10 08:34:00;;;;;;;2.20;2.00;;;;;;;;;;5003016;28;93290;-75
2024/01/10 08:36:27;;;;;;;3.50;2.20;;;;;;;;;;5005527;28;92467;-75
2024/01/10 08:38:53;;;;;;;4.43;1.95;;;;;;;;;;4999741;28;92354;-75
2024/01/10 08:41:20;;;;;;;4.60;2.15;;;;;;;;;;5010034;28;93074;-75
2024/01/10 08:43:46;;;;;;;6.25;1.95;;;;;;;;;;4995144;28;92893;-75
2024/01/10 08:46:13;;;;;;;2.55;2.25;;;;;;;;;;5005106;28;92534;-74
2024/01/10 08:48:40;;;;;;;2.70;1.85;;;;;;;;;;5002743;28;96351;-72
2024/01/10 08:51:09;;;;;;;3.65;2.20;;;;;;;;;;4997794;28;92523;-72
2024/01/10 08:53:35;;;;;;;2.28;2.05;;;;;;;;;;4996959;28;92452;-72
2024/01/10 08:56:02;;;;;;;4.13;2.42;;;;;;;;;;5005236;28;92533;-72
2024/01/10 08:58:28;;;;;;;4.10;2.20;;;;;;;;;;5010041;28;92482;-71
2024/01/10 09:00:55;;;;;;;3.92;2.53;;;;;;;;;;4993809;28;92754;-72
2024/01/10 09:03:21;;;;;;;2.42;2.10;;;;;;;;;;4992605;28;92950;-72
2024/01/10 09:05:48;;;;;;;2.42;2.03;;;;;;;;;;5000051;28;92282;-72
2024/01/10 09:08:30;;;;;;;3.58;2.35;;;;;;;;;;4994605;28;92533;-73
2024/01/10 09:10:57;;;;;;;3.47;2.15;;;;;;;;;;4991952;28;92940;-72
2024/01/10 09:13:23;;;;;;;2.45;2.00;;;;;;;;;;5008452;28;94974;-73
2024/01/10 09:15:50;;;;;;;2.08;1.85;;;;;;;;;;5000534;28;92979;-72
2024/01/10 09:18:16;;;;;;;2.50;1.95;;;;;;;;;;4992513;28;92550;-71
2024/01/10 09:20:44;;;;;;;4.88;2.22;;;;;;;;;;4992723;28;92521;-72
2024/01/10 09:23:11;;;;;;;3.35;2.20;;;;;;;;;;4994452;28;92357;-72
2024/01/10 09:25:37;;;;;;;2.97;2.55;;;;;;;;;;4995461;28;92609;-73
2024/01/10 09:28:04;;;;;;;2.72;1.95;;;;;;;;;;4995285;28;93347;-75
2024/01/10 09:30:30;;;;;;;2.85;2.10;;;;;;;;;;4997871;28;91968;-75
2024/01/10 09:32:57;;;;;;;5.22;2.40;;;;;;;;;;4994994;28;93556;-76
2024/01/10 09:35:23;;;;;;;3.20;2.20;;;;;;;;;;5000041;28;92437;-74
2024/01/10 09:37:50;;;;;;;3.03;2.40;;;;;;;;;;4992936;28;94639;-74
2024/01/10 09:40:17;;;;;;;3.38;2.30;;;;;;;;;;4997463;28;92369;-76
2024/01/10 09:42:44;;;;;;;2.30;2.10;;;;;;;;;;5000359;28;93049;-75
2024/01/10 09:45:13;;;;;;;2.20;2.00;;;;;;;;;;4999397;28;92246;-73
2024/01/10 09:47:42;;;;;;;2.30;2.00;;;;;;;;;;4997698;28;92386;-75
2024/01/10 09:50:10;;;;;;;2.40;2.20;;;;;;;;;;4994546;28;92535;-75
2024/01/10 09:52:40;;;;;;;2.75;2.28;;;;;;;;;;4994482;28;92425;-75
2024/01/10 09:55:08;;;;;;;3.72;2.55;;;;;;;;;;4995937;28;92125;-76
2024/01/10 09:57:36;;;;;;;2.22;2.00;;;;;;;;;;5017169;28;92317;-75
2024/01/10 10:00:04;;;;;;;2.65;2.13;;;;;;;;;;5001208;28;93212;-74
2024/01/10 10:02:32;;;;;;;5.00;2.33;;;;;;;;;;4996399;28;94948;-74
2024/01/10 10:05:04;;;;;;;2.80;2.10;;;;;;;;;;4994637;28;95108;-75
2024/01/10 10:07:30;;;;;;;4.05;2.70;;;;;;;;;;5004497;28;93081;-75
2024/01/10 10:09:58;;;;;;;5.68;2.40;;;;;;;;;;4998971;28;93857;-74
2024/01/10 10:12:43;;;;;;;3.63;2.55;;;;;;;;;;4997620;28;94139;-75
2024/01/10 10:15:11;;;;;;;2.88;2.30;;;;;;;;;;4995209;28;92791;-75
2024/01/10 10:17:44;;;;;;;2.95;2.30;;;;;;;;;;4997117;28;92473;-74
2024/01/10 10:20:14;;;;;;;2.53;2.30;;;;;;;;;;5000807;28;91814;-74
2024/01/10 10:22:57;;;;;;;2.50;2.30;;;;;;;;;;4992427;28;92515;-75
2024/01/10 10:25:23;;;;;;;3.15;2.47;;;;;;;;;;4998880;28;92490;-75
2024/01/10 10:27:52;;;;;;;3.20;2.10;;;;;;;;;;5003167;28;96346;-74
2024/01/10 10:30:18;;;;;;;3.30;2.20;;;;;;;;;;4996930;28;92483;-75
2024/01/10 10:32:45;;;;;;;4.70;3.15;;;;;;;;;;4996950;28;92985;-75
2024/01/10 10:35:11;;;;;;;3.08;2.10;;;;;;;;;;4993598;28;92479;-75
2024/01/10 10:37:58;;;;;;;4.00;2.17;;;;;;;;;;4993702;28;92965;-75
2024/01/10 10:40:25;;;;;;;4.03;2.67;;;;;;;;;;4992840;28;92436;-75
2024/01/10 10:42:54;;;;;;;2.38;2.17;;;;;;;;;;5009872;28;93108;-75
2024/01/10 10:45:25;;;;;;;6.53;2.28;;;;;;;;;;4993946;28;92290;-75
2024/01/10 10:47:56;;;;;;;4.22;2.65;;;;;;;;;;4993727;28;92491;-75
2024/01/10 10:50:23;;;;;;;2.38;2.17;;;;;;;;;;4992966;28;92568;-75
2024/01/10 10:52:51;;;;;;;2.58;2.38;;;;;;;;;;4988621;28;95015;-75
2024/01/10 10:55:18;;;;;;;4.43;2.22;;;;;;;;;;5002632;28;93404;-79
2024/01/10 10:57:46;;;;;;;3.72;3.08;;;;;;;;;;5008525;28;92997;-77
2024/01/10 11:00:26;;;;;;;3.65;2.75;;;;;;;;;;4995755;28;92426;-78
2024/01/10 11:02:54;;;;;;;3.17;2.60;;;;;;;;;;5004506;28;92471;-78
2024/01/10 11:05:22;;;;;;;4.82;2.72;;;;;;;;;;5025126;28;92859;-78
2024/01/10 11:07:49;;;;;;;8.75;2.92;;;;;;;;;;5017625;28;93975;-78
2024/01/10 11:10:24;;;;;;;7.40;2.58;;;;;;;;;;5016813;28;92090;-79
2024/01/10 11:13:03;;;;;;;3.53;2.75;;;;;;;;;;5016785;28;91859;-78
2024/01/10 11:15:35;;;;;;;4.80;2.92;;;;;;;;;;4995309;28;93272;-74
2024/01/10 11:18:06;;;;;;;6.32;2.50;;;;;;;;;;4991716;28;94814;-74
2024/01/10 11:20:43;;;;;;;4.40;3.35;;;;;;;;;;4995009;28;93787;-75
2024/01/10 11:23:19;;;;;;;3.22;2.60;;;;;;;;;;5006862;28;94134;-74
2024/01/10 11:25:45;;;;;;;10.25;2.63;;;;;;;;;;4992798;28;94212;-74
2024/01/10 11:28:13;;;;;;;5.28;3.10;;;;;;;;;;4995401;28;92375;-74
2024/01/10 11:30:48;;;;;;;3.80;2.50;;;;;;;;;;4994277;28;93877;-75
2024/01/10 11:33:22;;;;;;;5.63;2.78;;;;;;;;;;4996228;28;92965;-74
2024/01/10 11:36:09;;;;;;;4.47;3.35;;;;;;;;;;4994978;28;92325;-74
2024/01/10 11:38:49;;;;;;;10.68;2.88;;;;;;;;;;4996489;28;94965;-74
2024/01/10 11:41:20;;;;;;;3.58;2.75;;;;;;;;;;5023037;28;93828;-75
2024/01/10 11:44:07;;;;;;;6.22;3.05;;;;;;;;;;4987295;28;95814;-74
2024/01/10 11:46:54;;;;;;;4.10;2.97;;;;;;;;;;4994278;28;93079;-75
2024/01/10 11:49:22;;;;;;;3.88;2.95;;;;;;;;;;4994893;28;92817;-75
2024/01/10 11:51:50;;;;;;;3.58;2.97;;;;;;;;;;4992102;28;92517;-75
2024/01/10 11:54:35;;;;;;;6.18;2.85;;;;;;;;;;4999534;28;92819;-75
2024/01/10 11:57:02;;;;;;;3.95;3.30;;;;;;;;;;4990289;28;94844;-74
2024/01/10 11:59:30;;;;;;;4.95;2.92;;;;;;;;;;4988338;28;92881;-75
2024/01/10 12:01:57;;;;;;;5.78;3.30;;;;;;;;;;4992287;28;92965;-76
2024/01/10 12:04:26;;;;;;;9.85;2.92;;;;;;;;;;4989279;28;92402;-76
2024/01/10 12:07:07;;;;;;;4.55;2.60;;;;;;;;;;4991831;28;92917;-75
2024/01/10 12:09:35;;;;;;;10.13;2.90;;;;;;;;;;4991384;28;94738;-75
2024/01/10 12:12:02;;;;;;;3.92;2.90;;;;;;;;;;4998524;28;92637;-75
2024/01/10 12:14:30;;;;;;;5.95;2.67;;;;;;;;;;4998963;28;92567;-75
2024/01/10 12:16:57;;;;;;;4.15;3.13;;;;;;;;;;4993431;28;93065;-75
2024/01/10 12:19:23;;;;;;;4.72;3.17;;;;;;;;;;4997392;28;92527;-75
2024/01/10 12:21:50;;;;;;;6.20;3.03;;;;;;;;;;4997607;28;93110;-76
2024/01/10 12:24:16;;;;;;;4.20;3.17;;;;;;;;;;4998818;28;92437;-76
2024/01/10 12:26:43;;;;;;;2.72;2.50;;;;;;;;;;4995678;28;91881;-76
2024/01/10 12:29:11;;;;;;;3.83;2.65;;;;;;;;;;4996156;28;92339;-76
2024/01/10 12:31:38;;;;;;;9.63;2.80;;;;;;;;;;5006392;28;92397;-76
2024/01/10 12:34:06;;;;;;;4.50;3.03;;;;;;;;;;4996194;28;94750;-76
2024/01/10 12:36:34;;;;;;;5.38;3.47;;;;;;;;;;4995309;28;92868;-76
2024/01/10 12:39:00;;;;;;;4.22;2.88;;;;;;;;;;4995314;28;92622;-76
2024/01/10 12:41:27;;;;;;;3.92;2.38;;;;;;;;;;4993390;28;93701;-76
2024/01/10 12:43:56;;;;;;;4.40;2.72;;;;;;;;;;4994056;28;93195;-76
2024/01/10 12:46:25;;;;;;;3.72;2.97;;;;;;;;;;4992940;28;92795;-75
2024/01/10 12:49:02;;;;;;;5.72;3.10;;;;;;;;;;4994797;28;92555;-75
2024/01/10 12:51:29;;;;;;;3.40;2.38;;;;;;;;;;4994549;28;92978;-74
2024/01/10 12:54:00;;;;;;;3.78;2.72;;;;;;;;;;5003539;28;92384;-74
2024/01/10 12:56:27;;;;;;;4.40;2.50;;;;;;;;;;4996493;28;93104;-74
2024/01/10 12:58:57;;;;;;;5.00;2.70;;;;;;;;;;4993345;28;94930;-77
2024/01/10 13:01:24;;;;;;;4.63;2.78;;;;;;;;;;4999642;28;95473;-77
2024/01/10 13:03:52;;;;;;;4.60;2.97;;;;;;;;;;4992842;28;93004;-76
2024/01/10 13:06:22;;;;;;;4.82;3.10;;;;;;;;;;4991213;28;92516;-76
2024/01/10 13:08:49;;;;;;;3.72;2.97;;;;;;;;;;5001725;28;92858;-77
2024/01/10 13:11:16;;;;;;;4.13;2.83;;;;;;;;;;4997991;28;92507;-77
2024/01/10 13:13:43;;;;;;;4.18;2.95;;;;;;;;;;4994588;28;92968;-76
2024/01/10 13:16:10;;;;;;;3.08;2.70;;;;;;;;;;4999571;28;92876;-77
2024/01/10 13:18:37;;;;;;;2.65;2.30;;;;;;;;;;5002195;28;92467;-76
2024/01/10 13:21:04;;;;;;;8.10;2.83;;;;;;;;;;4997964;28;92693;-76
2024/01/10 13:23:31;;;;;;;3.42;2.80;;;;;;;;;;4991806;28;95194;-77
2024/01/10 13:25:59;;;;;;;5.75;3.15;;;;;;;;;;5000137;28;92314;-77
2024/01/10 13:28:27;;;;;;;4.00;3.00;;;;;;;;;;4996861;28;94802;-77
2024/01/10 13:30:56;;;;;;;5.75;2.70;;;;;;;;;;4995563;28;95285;-77
2024/01/10 13:33:22;;;;;;;3.92;2.78;;;;;;;;;;5009109;28;95823;-77
2024/01/10 13:35:49;;;;;;;4.15;2.80;;;;;;;;;;4979796;28;92410;-77
2024/01/10 13:38:16;;;;;;;4.45;3.05;;;;;;;;;;4996840;28;93308;-77
2024/01/10 13:40:43;;;;;;;2.90;2.50;;;;;;;;;;5002033;28;92677;-77
2024/01/10 13:43:09;;;;;;;3.40;2.63;;;;;;;;;;5008887;28;93042;-77
2024/01/10 13:45:36;;;;;;;5.38;2.60;;;;;;;;;;5000215;28;92552;-77
2024/01/10 13:48:03;;;;;;;2.95;2.47;;;;;;;;;;5002434;28;94833;-77
2024/01/10 13:50:30;;;;;;;2.97;2.25;;;;;;;;;;4993971;28;92503;-77
2024/01/10 13:52:56;;;;;;;3.60;2.75;;;;;;;;;;4995288;28;92887;-76
2024/01/10 13:55:24;;;;;;;3.08;2.70;;;;;;;;;;4995153;28;92432;-76
2024/01/10 13:57:51;;;;;;;3.58;2.53;;;;;;;;;;5001346;28;93307;-76
2024/01/10 14:00:19;;;;;;;5.78;2.70;;;;;;;;;;5012565;28;92359;-76
2024/01/10 14:02:45;;;;;;;4.00;2.60;;;;;;;;;;4999900;28;92578;-76
2024/01/10 14:05:12;;;;;;;4.88;3.03;;;;;;;;;;4993987;28;95921;-76
2024/01/10 14:07:38;;;;;;;2.85;2.65;;;;;;;;;;4994943;28;92453;-76
2024/01/10 14:10:05;;;;;;;3.22;2.22;;;;;;;;;;4992798;28;92504;-76
2024/01/10 14:12:33;;;;;;;5.03;2.90;;;;;;;;;;4994346;28;94783;-77
2024/01/10 14:15:02;;;;;;;2.85;2.60;;;;;;;;;;5005378;28;93934;-79
2024/01/10 14:17:29;;;;;;;3.65;2.30;;;;;;;;;;5012644;28;92413;-76
2024/01/10 14:19:55;;;;;;;3.15;2.63;;;;;;;;;;5009284;28;94237;-77
2024/01/10 14:22:23;;;;;;;2.65;2.45;;;;;;;;;;5010969;28;92358;-76
2024/01/10 14:24:57;;;;;;;2.40;2.15;;;;;;;;;;5009689;28;92971;-76
2024/01/10 14:27:28;;;;;;;5.20;2.75;;;;;;;;;;5000662;28;92820;-76
2024/01/10 14:29:54;;;;;;;4.55;2.45;;;;;;;;;;4993470;28;92597;-76
2024/01/10 14:32:21;;;;;;;4.40;2.55;;;;;;;;;;5000362;28;92480;-76
2024/01/10 14:34:48;;;;;;;4.82;2.78;;;;;;;;;;5004878;28;92236;-77
2024/01/10 14:37:15;;;;;;;2.35;2.15;;;;;;;;;;4991523;28;94767;-76
2024/01/10 14:39:41;;;;;;;4.82;2.72;;;;;;;;;;5000817;28;92524;-76
2024/01/10 14:42:08;;;;;;;3.25;2.53;;;;;;;;;;5007397;28;92813;-76
2024/01/10 14:44:35;;;;;;;2.40;2.20;;;;;;;;;;5004393;28;92368;-77
2024/01/10 14:47:02;;;;;;;4.63;2.42;;;;;;;;;;4999179;28;92481;-77